Brightside, New York
Current Conditions -  °F | °C
As of 7:51 AM on Friday 24 Oct 2014 (Local Time) from KSLK Reporting Station
Overcast Overcast  
Wind Chill: 35°   Ceiling: 900
Heat Index: 40°   Visibility: 10mi
Dew Point: 38°   Wind: 7mph
Humidity: 93%   Direction: NA
Pressure: 29.86"   Gusts: NA
Location:  43.8706°N, 74.5546°W
Report Text: KSLK 241151Z AUTO VRB06KT 10SM OVC009 04/03 A2986 RMK AO2 RAE20 CIG 007V012 SLP122 P0001 60007 70012 T00440033 10044 20039 50003
Loading
Personal Weather Stations






























Interactive Weather Map
Tropical Storm Tracking
New forecast layout! Learn more

10-Day Weather Forecast

Advertisements
Track Severe Weather on mobile